Time,TemperatureF,DewpointF,PressureIn,WindDirection,WindDirectionDegrees,WindSpeedMPH,WindSpeedGustMPH,Humidity,HourlyPrecipIn,Conditions,Clouds,dailyrainin,SoftwareType,DateUTC
2013-02-02 00:00:00,23.0,9.7,30.29,West,278,7.0,20.0,56,0.00,,---,0.00,VWS V14.01,2013-02-02 05:00:00,
2013-02-02 00:01:00,23.0,9.7,30.29,SW,231,17.0,17.0,56,0.00,,---,0.00,VWS V14.01,2013-02-02 05:01:00,
2013-02-02 00:06:00,22.9,9.6,30.29,WSW,258,15.0,18.0,56,0.00,,---,0.00,VWS V14.01,2013-02-02 05:06:00,
2013-02-02 00:11:00,23.0,9.7,30.29,WSW,252,9.0,20.0,56,0.00,,---,0.00,VWS V14.01,2013-02-02 05:11:00,
2013-02-02 00:16:00,22.9,9.6,30.29,West,272,10.0,20.0,56,0.00,,---,0.00,VWS V14.01,2013-02-02 05:16:00,
2013-02-02 00:21:00,22.9,10.0,30.29,NNW,338,10.0,20.0,57,0.00,,---,0.00,VWS V14.01,2013-02-02 05:21:00,
2013-02-02 00:26:00,22.8,10.2,30.29,West,262,10.0,20.0,58,0.00,,---,0.00,VWS V14.01,2013-02-02 05:26:00,
2013-02-02 00:31:00,22.7,9.4,30.29,SSW,207,11.0,15.0,56,0.00,,---,0.00,VWS V14.01,2013-02-02 05:31:00,
2013-02-02 00:36:00,22.6,9.3,30.29,West,270,10.0,18.0,56,0.00,,---,0.00,VWS V14.01,2013-02-02 05:36:00,
2013-02-02 00:41:00,22.5,9.2,30.29,WSW,252,12.0,20.0,56,0.00,,---,0.00,VWS V14.01,2013-02-02 05:41:00,
2013-02-02 00:46:00,22.5,9.6,30.29,West,266,13.0,20.0,57,0.00,,---,0.00,VWS V14.01,2013-02-02 05:46:00,
2013-02-02 00:51:00,22.4,9.5,30.29,WSW,256,16.0,20.0,57,0.00,,---,0.00,VWS V14.01,2013-02-02 05:51:00,
2013-02-02 00:56:00,22.4,9.5,30.29,West,263,11.0,20.0,57,0.00,,---,0.00,VWS V14.01,2013-02-02 05:56:00,
2013-02-02 01:01:00,22.3,9.4,30.30,WSW,248,13.0,16.0,57,0.00,,---,0.00,VWS V14.01,2013-02-02 06:01:00,
2013-02-02 01:06:00,22.3,9.4,30.30,WSW,249,13.0,19.0,57,0.00,,---,0.00,VWS V14.01,2013-02-02 06:06:00,
2013-02-02 01:11:00,22.2,9.7,30.30,WSW,255,10.0,19.0,58,0.00,,---,0.00,VWS V14.01,2013-02-02 06:11:00,
2013-02-02 01:16:00,22.1,9.6,30.30,WNW,284,10.0,19.0,58,0.00,,---,0.00,VWS V14.01,2013-02-02 06:16:00,
2013-02-02 01:21:00,22.0,9.5,30.31,WSW,253,10.0,19.0,58,0.00,,---,0.00,VWS V14.01,2013-02-02 06:21:00,
2013-02-02 01:26:00,21.9,9.4,30.30,WNW,286,8.0,19.0,58,0.00,,---,0.00,VWS V14.01,2013-02-02 06:26:00,
2013-02-02 01:31:00,21.9,9.4,30.31,WSW,253,11.0,14.0,58,0.00,,---,0.00,VWS V14.01,2013-02-02 06:31:00,
2013-02-02 01:36:00,21.8,9.3,30.31,NW,311,6.0,14.0,58,0.00,,---,0.00,VWS V14.01,2013-02-02 06:36:00,
2013-02-02 01:41:00,21.8,9.3,30.31,West,267,12.0,15.0,58,0.00,,---,0.00,VWS V14.01,2013-02-02 06:41:00,
2013-02-02 01:46:00,21.9,9.0,30.31,WSW,255,11.0,17.0,57,0.00,,---,0.00,VWS V14.01,2013-02-02 06:46:00,
2013-02-02 01:51:00,21.8,9.3,30.31,SW,234,11.0,17.0,58,0.00,,---,0.00,VWS V14.01,2013-02-02 06:51:00,
2013-02-02 01:56:00,21.7,10.0,30.32,WSW,245,11.0,17.0,60,0.00,,---,0.00,VWS V14.01,2013-02-02 06:56:00,
2013-02-02 02:01:00,21.6,9.5,30.32,West,276,8.0,11.0,59,0.00,,---,0.00,VWS V14.01,2013-02-02 07:01:00,
2013-02-02 02:06:00,21.5,10.9,30.32,West,262,7.0,11.0,63,0.00,,---,0.00,VWS V14.01,2013-02-02 07:06:00,
2013-02-02 02:11:00,21.2,10.6,30.32,WSW,245,10.0,12.0,63,0.00,,---,0.00,VWS V14.01,2013-02-02 07:11:00,
2013-02-02 02:16:00,21.1,9.8,30.33,WSW,251,8.0,12.0,61,0.00,,---,0.00,VWS V14.01,2013-02-02 07:16:00,
2013-02-02 02:21:00,21.0,10.0,30.33,West,281,8.0,14.0,62,0.00,,---,0.00,VWS V14.01,2013-02-02 07:21:00,
2013-02-02 02:26:00,21.1,10.5,30.33,WSW,246,7.0,14.0,63,0.00,,---,0.00,VWS V14.01,2013-02-02 07:26:00,
2013-02-02 02:31:00,20.9,11.0,30.33,WSW,237,9.0,12.0,65,0.00,,---,0.00,VWS V14.01,2013-02-02 07:31:00,
2013-02-02 02:36:00,20.5,11.0,30.33,SW,231,7.0,16.0,66,0.00,,---,0.00,VWS V14.01,2013-02-02 07:36:00,
2013-02-02 02:42:00,20.4,10.5,30.33,SW,225,6.0,16.0,65,0.00,,---,0.00,VWS V14.01,2013-02-02 07:42:00,
2013-02-02 02:47:00,20.3,11.1,30.33,SW,234,12.0,16.0,67,0.00,,---,0.00,VWS V14.01,2013-02-02 07:47:00,
2013-02-02 02:52:00,20.5,10.6,30.33,West,278,5.0,16.0,65,0.00,,---,0.00,VWS V14.01,2013-02-02 07:52:00,
2013-02-02 02:57:00,20.6,10.4,30.33,WSW,254,19.0,19.0,64,0.00,,---,0.00,VWS V14.01,2013-02-02 07:57:00,
2013-02-02 03:01:00,20.6,10.7,30.33,WSW,257,4.0,13.0,65,0.00,,---,0.00,VWS V14.01,2013-02-02 08:01:00,
2013-02-02 03:06:00,20.5,10.3,30.33,SW,236,11.0,14.0,64,0.00,,---,0.00,VWS V14.01,2013-02-02 08:06:00,
2013-02-02 03:12:00,20.4,9.8,30.33,WNW,288,5.0,14.0,63,0.00,,---,0.00,VWS V14.01,2013-02-02 08:12:00,
2013-02-02 03:17:00,20.4,10.2,30.33,West,265,5.0,14.0,64,0.00,,---,0.00,VWS V14.01,2013-02-02 08:17:00,
2013-02-02 03:22:00,20.3,10.1,30.33,West,262,8.0,16.0,64,0.00,,---,0.00,VWS V14.01,2013-02-02 08:22:00,
2013-02-02 03:27:00,20.2,10.3,30.33,NW,309,7.0,16.0,65,0.00,,---,0.00,VWS V14.01,2013-02-02 08:27:00,
2013-02-02 03:32:00,20.1,10.2,30.33,West,275,6.0,7.0,65,0.00,,---,0.00,VWS V14.01,2013-02-02 08:32:00,
2013-02-02 03:37:00,20.0,10.5,30.32,West,267,6.0,10.0,66,0.00,,---,0.00,VWS V14.01,2013-02-02 08:37:00,
2013-02-02 03:42:00,19.9,10.1,30.32,WNW,290,6.0,12.0,65,0.00,,---,0.00,VWS V14.01,2013-02-02 08:42:00,
2013-02-02 03:47:00,19.8,9.9,30.32,WSW,240,9.0,12.0,65,0.00,,---,0.00,VWS V14.01,2013-02-02 08:47:00,
2013-02-02 03:52:00,19.8,10.6,30.32,West,278,5.0,12.0,67,0.00,,---,0.00,VWS V14.01,2013-02-02 08:52:00,
2013-02-02 03:57:00,19.7,9.9,30.32,WNW,301,10.0,12.0,65,0.00,,---,0.00,VWS V14.01,2013-02-02 08:57:00,
2013-02-02 04:02:00,19.6,9.4,30.32,WSW,252,7.0,11.0,64,0.00,,---,0.00,VWS V14.01,2013-02-02 09:02:00,
2013-02-02 04:07:00,19.4,9.6,30.32,South,185,3.0,13.0,65,0.00,,---,0.00,VWS V14.01,2013-02-02 09:07:00,
2013-02-02 04:12:00,19.4,9.6,30.31,WNW,286,7.0,13.0,65,0.00,,---,0.00,VWS V14.01,2013-02-02 09:12:00,
2013-02-02 04:17:00,19.3,9.5,30.31,WNW,289,10.0,13.0,65,0.00,,---,0.00,VWS V14.01,2013-02-02 09:17:00,
2013-02-02 04:22:00,19.3,9.5,30.31,WNW,288,9.0,13.0,65,0.00,,---,0.00,VWS V14.01,2013-02-02 09:22:00,
2013-02-02 04:27:00,19.3,9.5,30.31,NW,317,5.0,14.0,65,0.00,,---,0.00,VWS V14.01,2013-02-02 09:27:00,
2013-02-02 04:32:00,19.3,9.5,30.31,West,274,7.0,14.0,65,0.00,,---,0.00,VWS V14.01,2013-02-02 09:32:00,
2013-02-02 04:37:00,19.3,9.5,30.32,WSW,238,11.0,14.0,65,0.00,,---,0.00,VWS V14.01,2013-02-02 09:37:00,
2013-02-02 04:42:00,19.3,10.1,30.32,West,265,5.0,14.0,67,0.00,,---,0.00,VWS V14.01,2013-02-02 09:42:00,
2013-02-02 04:47:00,19.2,9.4,30.31,WSW,254,11.0,14.0,65,0.00,,---,0.00,VWS V14.01,2013-02-02 09:47:00,
2013-02-02 04:52:00,19.2,9.7,30.31,WSW,250,9.0,14.0,66,0.00,,---,0.00,VWS V14.01,2013-02-02 09:52:00,
2013-02-02 04:57:00,19.1,9.6,30.31,West,269,7.0,14.0,66,0.00,,---,0.00,VWS V14.01,2013-02-02 09:57:00,
2013-02-02 05:02:00,19.0,9.5,30.32,WSW,252,8.0,12.0,66,0.00,,---,0.00,VWS V14.01,2013-02-02 10:02:00,
2013-02-02 05:07:00,19.0,9.5,30.32,West,277,8.0,12.0,66,0.00,,---,0.00,VWS V14.01,2013-02-02 10:07:00,
2013-02-02 05:12:00,18.9,9.8,30.32,West,272,6.0,12.0,67,0.00,,---,0.00,VWS V14.01,2013-02-02 10:12:00,
2013-02-02 05:17:00,18.9,10.1,30.32,West,260,10.0,12.0,68,0.00,,---,0.00,VWS V14.01,2013-02-02 10:17:00,
2013-02-02 05:22:00,18.9,9.8,30.32,North,352,8.0,13.0,67,0.00,,---,0.00,VWS V14.01,2013-02-02 10:22:00,
2013-02-02 05:27:00,18.8,10.0,30.32,West,261,6.0,13.0,68,0.00,,---,0.00,VWS V14.01,2013-02-02 10:27:00,
2013-02-02 05:32:00,18.8,10.0,30.32,West,264,5.0,11.0,68,0.00,,---,0.00,VWS V14.01,2013-02-02 10:32:00,
2013-02-02 05:37:00,18.7,9.6,30.32,WNW,285,6.0,11.0,67,0.00,,---,0.00,VWS V14.01,2013-02-02 10:37:00,
2013-02-02 05:42:00,18.6,9.8,30.32,WNW,290,6.0,11.0,68,0.00,,---,0.00,VWS V14.01,2013-02-02 10:42:00,
2013-02-02 05:47:00,18.6,9.8,30.32,WNW,285,6.0,11.0,68,0.00,,---,0.00,VWS V14.01,2013-02-02 10:47:00,
2013-02-02 05:52:00,18.6,9.8,30.32,West,262,7.0,12.0,68,0.00,,---,0.00,VWS V14.01,2013-02-02 10:52:00,
2013-02-02 05:57:00,18.6,9.5,30.33,WNW,298,8.0,13.0,67,0.00,,---,0.00,VWS V14.01,2013-02-02 10:57:00,
2013-02-02 06:02:00,18.6,9.8,30.33,West,271,6.0,11.0,68,0.00,,---,0.00,VWS V14.01,2013-02-02 11:02:00,
2013-02-02 06:07:00,18.5,9.7,30.33,WNW,285,7.0,11.0,68,0.00,,---,0.00,VWS V14.01,2013-02-02 11:07:00,
2013-02-02 06:12:00,18.3,9.2,30.33,West,279,6.0,11.0,67,0.00,,---,0.00,VWS V14.01,2013-02-02 11:12:00,
2013-02-02 06:17:00,18.3,9.2,30.33,SW,235,8.0,11.0,67,0.00,,---,0.00,VWS V14.01,2013-02-02 11:17:00,
2013-02-02 06:22:00,18.3,9.2,30.33,West,264,8.0,11.0,67,0.00,,---,0.00,VWS V14.01,2013-02-02 11:22:00,
2013-02-02 06:27:00,18.2,8.8,30.33,WSW,246,8.0,12.0,66,0.00,,---,0.00,VWS V14.01,2013-02-02 11:27:00,
2013-02-02 06:32:00,18.2,8.8,30.33,West,262,6.0,10.0,66,0.00,,---,0.00,VWS V14.01,2013-02-02 11:32:00,
2013-02-02 06:37:00,18.2,9.1,30.33,West,269,5.0,11.0,67,0.00,,---,0.00,VWS V14.01,2013-02-02 11:37:00,
2013-02-02 06:42:00,18.2,9.1,30.33,SSE,152,5.0,11.0,67,0.00,,---,0.00,VWS V14.01,2013-02-02 11:42:00,
2013-02-02 06:47:00,18.2,9.1,30.33,NNW,338,3.0,13.0,67,0.00,,---,0.00,VWS V14.01,2013-02-02 11:47:00,
2013-02-02 06:52:00,18.2,9.1,30.34,NNW,345,9.0,13.0,67,0.00,,---,0.00,VWS V14.01,2013-02-02 11:52:00,
2013-02-02 06:57:00,18.2,8.8,30.34,WNW,293,7.0,13.0,66,0.00,,---,0.00,VWS V14.01,2013-02-02 11:57:00,
2013-02-02 07:02:00,18.2,8.8,30.34,WNW,293,9.0,13.0,66,0.00,,---,0.00,VWS V14.01,2013-02-02 12:02:00,
2013-02-02 07:07:00,18.3,8.9,30.34,WSW,246,7.0,13.0,66,0.00,,---,0.00,VWS V14.01,2013-02-02 12:07:00,
2013-02-02 07:12:00,18.4,9.0,30.35,West,264,8.0,13.0,66,0.00,,---,0.00,VWS V14.01,2013-02-02 12:12:00,
2013-02-02 07:17:00,18.6,9.5,30.35,West,266,9.0,13.0,67,0.00,,---,0.00,VWS V14.01,2013-02-02 12:17:00,
2013-02-02 07:22:00,18.8,9.7,30.35,West,264,8.0,13.0,67,0.00,,---,0.00,VWS V14.01,2013-02-02 12:22:00,
2013-02-02 07:27:00,19.0,9.5,30.35,West,280,8.0,13.0,66,0.00,,---,0.00,VWS V14.01,2013-02-02 12:27:00,
2013-02-02 07:32:00,19.2,9.7,30.35,WSW,243,6.0,11.0,66,0.00,,---,0.00,VWS V14.01,2013-02-02 12:32:00,
2013-02-02 07:37:00,19.4,9.2,30.35,WNW,299,7.0,11.0,64,0.00,,---,0.00,VWS V14.01,2013-02-02 12:37:00,
2013-02-02 07:42:00,19.5,9.3,30.35,West,278,8.0,15.0,64,0.00,,---,0.00,VWS V14.01,2013-02-02 12:42:00,
2013-02-02 07:47:00,19.5,9.0,30.36,WNW,300,9.0,15.0,63,0.00,,---,0.00,VWS V14.01,2013-02-02 12:47:00,
2013-02-02 07:52:00,19.8,9.3,30.35,WSW,257,7.0,15.0,63,0.00,,---,0.00,VWS V14.01,2013-02-02 12:52:00,
2013-02-02 07:57:00,19.7,8.4,30.35,WNW,287,7.0,15.0,61,0.00,,---,0.00,VWS V14.01,2013-02-02 12:57:00,
2013-02-02 08:02:00,19.9,9.0,30.35,West,269,5.0,11.0,62,0.00,,---,0.00,VWS V14.01,2013-02-02 13:02:00,
2013-02-02 08:07:00,20.2,10.0,30.35,West,274,4.0,11.0,64,0.00,,---,0.00,VWS V14.01,2013-02-02 13:07:00,
2013-02-02 08:12:00,20.2,8.6,30.36,WNW,283,8.0,13.0,60,0.00,,---,0.00,VWS V14.01,2013-02-02 13:12:00,
2013-02-02 08:17:00,20.4,8.7,30.36,SW,224,8.0,13.0,60,0.00,,---,0.00,VWS V14.01,2013-02-02 13:17:00,
2013-02-02 08:22:00,20.5,8.5,30.36,West,263,7.0,13.0,59,0.00,,---,0.00,VWS V14.01,2013-02-02 13:22:00,
2013-02-02 08:28:00,20.7,8.6,30.35,SW,215,6.0,13.0,59,0.00,,---,0.00,VWS V14.01,2013-02-02 13:28:00,
2013-02-02 08:33:00,20.9,8.8,30.35,WNW,283,4.0,11.0,59,0.00,,---,0.00,VWS V14.01,2013-02-02 13:33:00,
2013-02-02 08:37:00,21.1,9.0,30.36,SW,224,7.0,11.0,59,0.00,,---,0.00,VWS V14.01,2013-02-02 13:37:00,
2013-02-02 08:42:00,21.2,9.1,30.36,WSW,246,6.0,12.0,59,0.00,,---,0.00,VWS V14.01,2013-02-02 13:42:00,
2013-02-02 08:48:00,21.3,9.2,30.36,WSW,258,12.0,12.0,59,0.00,,---,0.00,VWS V14.01,2013-02-02 13:48:00,
2013-02-02 08:53:00,21.2,8.0,30.36,West,273,8.0,14.0,56,0.00,,---,0.00,VWS V14.01,2013-02-02 13:53:00,
2013-02-02 08:58:00,21.3,8.8,30.35,WSW,241,10.0,14.0,58,0.00,,---,0.00,VWS V14.01,2013-02-02 13:58:00,
2013-02-02 09:03:00,21.4,8.9,30.35,West,264,4.0,11.0,58,0.00,,---,0.00,VWS V14.01,2013-02-02 14:03:00,
2013-02-02 09:08:00,21.6,8.3,30.35,SW,228,6.0,12.0,56,0.00,,---,0.00,VWS V14.01,2013-02-02 14:08:00,
2013-02-02 09:13:00,21.8,8.5,30.35,WSW,251,5.0,12.0,56,0.00,,---,0.00,VWS V14.01,2013-02-02 14:13:00,
2013-02-02 09:18:00,22.1,8.0,30.34,SW,234,5.0,12.0,54,0.00,,---,0.00,VWS V14.01,2013-02-02 14:18:00,
2013-02-02 09:23:00,22.1,7.6,30.34,WSW,247,7.0,13.0,53,0.00,,---,0.00,VWS V14.01,2013-02-02 14:23:00,
2013-02-02 09:28:00,22.6,8.5,30.34,WSW,256,7.0,13.0,54,0.00,,---,0.00,VWS V14.01,2013-02-02 14:28:00,
2013-02-02 09:33:00,22.4,7.4,30.34,West,264,5.0,11.0,52,0.00,,---,0.00,VWS V14.01,2013-02-02 14:33:00,
2013-02-02 09:38:00,22.3,7.8,30.34,ESE,120,3.0,13.0,53,0.00,,---,0.00,VWS V14.01,2013-02-02 14:38:00,
2013-02-02 09:43:00,22.8,7.8,30.34,WSW,251,4.0,13.0,52,0.00,,---,0.00,VWS V14.01,2013-02-02 14:43:00,
2013-02-02 09:48:00,22.9,8.8,30.34,WNW,290,6.0,13.0,54,0.00,,---,0.00,VWS V14.01,2013-02-02 14:48:00,
2013-02-02 09:53:00,23.3,8.3,30.34,West,264,8.0,13.0,52,0.00,,---,0.00,VWS V14.01,2013-02-02 14:53:00,
2013-02-02 09:58:00,23.2,7.3,30.33,SW,230,9.0,13.0,50,0.00,,---,0.00,VWS V14.01,2013-02-02 14:58:00,
2013-02-02 10:03:00,23.5,8.9,30.33,WSW,255,8.0,11.0,53,0.00,,---,0.00,VWS V14.01,2013-02-02 15:03:00,
2013-02-02 10:08:00,23.4,7.5,30.33,SSW,192,4.0,12.0,50,0.00,,---,0.00,VWS V14.01,2013-02-02 15:08:00,
2013-02-02 10:13:00,23.3,7.9,30.33,SSW,198,6.0,12.0,51,0.00,,---,0.00,VWS V14.01,2013-02-02 15:13:00,
2013-02-02 10:18:00,23.7,9.1,30.33,WSW,239,1.0,12.0,53,0.00,,---,0.00,VWS V14.01,2013-02-02 15:18:00,
2013-02-02 10:23:00,23.9,8.4,30.33,WSW,243,2.0,12.0,51,0.00,,---,0.00,VWS V14.01,2013-02-02 15:23:00,
2013-02-02 10:28:00,24.7,9.2,30.33,SSE,167,2.0,12.0,51,0.00,,---,0.00,VWS V14.01,2013-02-02 15:28:00,
2013-02-02 10:33:00,24.7,8.7,30.33,SW,221,4.0,9.0,50,0.00,,---,0.00,VWS V14.01,2013-02-02 15:33:00,
2013-02-02 10:38:00,25.3,9.3,30.32,SE,142,3.0,10.0,50,0.00,,---,0.00,VWS V14.01,2013-02-02 15:38:00,
2013-02-02 10:43:00,25.3,8.8,30.32,SSE,167,2.0,12.0,49,0.00,,---,0.00,VWS V14.01,2013-02-02 15:43:00,
2013-02-02 10:48:00,25.6,9.1,30.32,SW,231,5.0,12.0,49,0.00,,---,0.00,VWS V14.01,2013-02-02 15:48:00,
2013-02-02 10:53:00,26.2,9.2,30.32,NNE,22,2.0,12.0,48,0.00,,---,0.00,VWS V14.01,2013-02-02 15:53:00,
2013-02-02 10:58:00,26.7,10.1,30.31,SSW,213,7.0,12.0,49,0.00,,---,0.00,VWS V14.01,2013-02-02 15:58:00,
2013-02-02 11:03:00,26.9,8.9,30.31,SSW,205,4.0,10.0,46,0.00,,---,0.00,VWS V14.01,2013-02-02 16:03:00,
2013-02-02 11:08:00,27.1,8.1,30.31,WSW,245,5.0,10.0,44,0.00,,---,0.00,VWS V14.01,2013-02-02 16:08:00,
2013-02-02 11:13:00,27.0,8.0,30.31,West,276,3.0,11.0,44,0.00,,---,0.00,VWS V14.01,2013-02-02 16:13:00,
2013-02-02 11:18:00,27.3,9.3,30.30,SW,225,6.0,11.0,46,0.00,,---,0.00,VWS V14.01,2013-02-02 16:18:00,
2013-02-02 11:23:00,27.2,7.7,30.30,WSW,238,12.0,12.0,43,0.00,,---,0.00,VWS V14.01,2013-02-02 16:23:00,
2013-02-02 11:28:00,26.3,8.4,30.30,WSW,249,4.0,15.0,46,0.00,,---,0.00,VWS V14.01,2013-02-02 16:28:00,
2013-02-02 11:33:00,26.9,9.4,30.29,NW,321,2.0,8.0,47,0.00,,---,0.00,VWS V14.01,2013-02-02 16:33:00,
2013-02-02 11:38:00,27.6,10.0,30.29,ENE,57,4.0,10.0,47,0.00,,---,0.00,VWS V14.01,2013-02-02 16:38:00,
2013-02-02 11:43:00,28.0,10.9,30.28,SSE,160,3.0,11.0,48,0.00,,---,0.00,VWS V14.01,2013-02-02 16:43:00,
2013-02-02 11:48:00,28.2,11.0,30.28,NNE,12,9.0,11.0,48,0.00,,---,0.00,VWS V14.01,2013-02-02 16:48:00,
2013-02-02 11:53:00,28.3,11.6,30.28,WSW,249,6.0,11.0,49,0.00,,---,0.00,VWS V14.01,2013-02-02 16:53:00,
2013-02-02 11:58:00,28.2,11.0,30.28,West,268,3.0,12.0,48,0.00,,---,0.00,VWS V14.01,2013-02-02 16:58:00,
2013-02-02 12:03:00,28.5,12.2,30.27,West,265,3.0,11.0,50,0.00,,---,0.00,VWS V14.01,2013-02-02 17:03:00,
2013-02-02 12:08:00,28.7,12.9,30.27,SW,225,2.0,12.0,51,0.00,,---,0.00,VWS V14.01,2013-02-02 17:08:00,
2013-02-02 12:13:00,28.9,13.1,30.27,NNE,22,3.0,12.0,51,0.00,,---,0.00,VWS V14.01,2013-02-02 17:13:00,
2013-02-02 12:18:00,28.8,12.5,30.26,SSE,156,8.0,12.0,50,0.00,,---,0.00,VWS V14.01,2013-02-02 17:18:00,
2013-02-02 12:23:00,29.6,12.8,30.26,NNW,331,4.0,12.0,49,0.00,,---,0.00,VWS V14.01,2013-02-02 17:23:00,
2013-02-02 12:28:00,29.6,13.3,30.26,WSW,237,13.0,14.0,50,0.00,,---,0.00,VWS V14.01,2013-02-02 17:28:00,
2013-02-02 12:33:00,29.4,13.1,30.25,SW,217,10.0,16.0,50,0.00,,---,0.00,VWS V14.01,2013-02-02 17:33:00,
2013-02-02 12:38:00,29.3,12.5,30.25,ENE,63,5.0,16.0,49,0.00,,---,0.00,VWS V14.01,2013-02-02 17:38:00,
2013-02-02 12:43:00,29.4,12.6,30.24,SSE,149,10.0,16.0,49,0.00,,---,0.00,VWS V14.01,2013-02-02 17:43:00,
2013-02-02 12:48:00,29.3,12.5,30.24,West,264,6.0,16.0,49,0.00,,---,0.00,VWS V14.01,2013-02-02 17:48:00,
2013-02-02 12:53:00,29.1,11.9,30.24,SSW,206,11.0,16.0,48,0.00,,---,0.00,VWS V14.01,2013-02-02 17:53:00,
2013-02-02 12:58:00,29.3,12.5,30.23,SSW,212,10.0,16.0,49,0.00,,---,0.00,VWS V14.01,2013-02-02 17:58:00,
2013-02-02 13:03:00,29.4,13.1,30.23,ENE,65,1.0,16.0,50,0.00,,---,0.00,VWS V14.01,2013-02-02 18:03:00,
2013-02-02 13:08:00,29.5,12.7,30.23,SW,214,4.0,16.0,49,0.00,,---,0.00,VWS V14.01,2013-02-02 18:08:00,
2013-02-02 13:13:00,29.4,13.1,30.22,West,272,3.0,16.0,50,0.00,,---,0.00,VWS V14.01,2013-02-02 18:13:00,
2013-02-02 13:18:00,29.5,10.3,30.22,WSW,238,6.0,16.0,44,0.00,,---,0.00,VWS V14.01,2013-02-02 18:18:00,
2013-02-02 13:23:00,29.1,9.4,30.21,SW,231,10.0,16.0,43,0.00,,---,0.00,VWS V14.01,2013-02-02 18:23:00,
2013-02-02 13:28:00,28.6,10.5,30.22,NE,34,2.0,16.0,46,0.00,,---,0.00,VWS V14.01,2013-02-02 18:28:00,
2013-02-02 13:33:00,28.8,11.6,30.21,ENE,70,5.0,11.0,48,0.00,,---,0.00,VWS V14.01,2013-02-02 18:33:00,
2013-02-02 13:38:00,28.8,10.6,30.21,NNW,337,4.0,13.0,46,0.00,,---,0.00,VWS V14.01,2013-02-02 18:38:00,
2013-02-02 13:43:00,28.9,10.7,30.21,SSW,205,6.0,13.0,46,0.00,,---,0.00,VWS V14.01,2013-02-02 18:43:00,
2013-02-02 13:48:00,28.9,10.2,30.20,SSW,212,7.0,13.0,45,0.00,,---,0.00,VWS V14.01,2013-02-02 18:48:00,
2013-02-02 13:53:00,28.9,10.2,30.20,West,280,4.0,13.0,45,0.00,,---,0.00,VWS V14.01,2013-02-02 18:53:00,
2013-02-02 13:58:00,28.6,10.9,30.20,WSW,242,10.0,15.0,47,0.00,,---,0.00,VWS V14.01,2013-02-02 18:58:00,
2013-02-02 14:03:00,28.6,10.9,30.19,SSW,198,12.0,12.0,47,0.00,,---,0.00,VWS V14.01,2013-02-02 19:03:00,
2013-02-02 14:08:00,28.6,10.9,30.20,SW,217,6.0,15.0,47,0.00,,---,0.00,VWS V14.01,2013-02-02 19:08:00,
2013-02-02 14:13:00,28.6,10.0,30.19,SSW,198,2.0,15.0,45,0.00,,---,0.00,VWS V14.01,2013-02-02 19:13:00,
2013-02-02 14:18:00,28.8,10.6,30.19,SSE,161,8.0,15.0,46,0.00,,---,0.00,VWS V14.01,2013-02-02 19:18:00,
2013-02-02 14:23:00,29.0,12.7,30.19,South,169,4.0,15.0,50,0.00,,---,0.00,VWS V14.01,2013-02-02 19:23:00,
2013-02-02 14:28:00,28.6,10.5,30.19,ENE,60,8.0,15.0,46,0.00,,---,0.00,VWS V14.01,2013-02-02 19:28:00,
2013-02-02 14:33:00,28.2,10.6,30.19,ESE,103,4.0,13.0,47,0.00,,---,0.00,VWS V14.01,2013-02-02 19:33:00,
2013-02-02 14:38:00,28.0,11.3,30.19,SSE,148,9.0,13.0,49,0.00,,---,0.00,VWS V14.01,2013-02-02 19:38:00,
2013-02-02 14:43:00,27.9,10.8,30.19,South,191,10.0,15.0,48,0.00,,---,0.00,VWS V14.01,2013-02-02 19:43:00,
2013-02-02 14:48:00,27.8,10.7,30.19,West,259,6.0,15.0,48,0.00,,---,0.00,VWS V14.01,2013-02-02 19:48:00,
2013-02-02 14:53:00,28.0,10.9,30.19,North,6,4.0,15.0,48,0.00,,---,0.00,VWS V14.01,2013-02-02 19:53:00,
2013-02-02 14:58:00,27.9,10.3,30.18,ENE,58,7.0,16.0,47,0.00,,---,0.00,VWS V14.01,2013-02-02 19:58:00,
2013-02-02 15:03:00,27.8,9.7,30.19,SW,217,7.0,16.0,46,0.00,,---,0.00,VWS V14.01,2013-02-02 20:03:00,
2013-02-02 15:08:00,27.8,11.1,30.18,WNW,293,8.0,16.0,49,0.00,,---,0.00,VWS V14.01,2013-02-02 20:08:00,
2013-02-02 15:13:00,27.7,9.6,30.18,SW,221,7.0,16.0,46,0.00,,---,0.00,VWS V14.01,2013-02-02 20:13:00,
2013-02-02 15:18:00,27.8,10.2,30.18,ESE,120,11.0,16.0,47,0.00,,---,0.00,VWS V14.01,2013-02-02 20:18:00,
2013-02-02 15:23:00,27.8,10.7,30.17,South,181,4.0,16.0,48,0.00,,---,0.00,VWS V14.01,2013-02-02 20:23:00,
2013-02-02 15:29:00,27.7,10.6,30.18,SW,214,5.0,16.0,48,0.00,,---,0.00,VWS V14.01,2013-02-02 20:29:00,
2013-02-02 15:34:00,27.8,10.7,30.18,SSW,203,8.0,12.0,48,0.00,,---,0.00,VWS V14.01,2013-02-02 20:34:00,
2013-02-02 15:39:00,28.2,11.5,30.17,SW,224,4.0,14.0,49,0.00,,---,0.00,VWS V14.01,2013-02-02 20:39:00,
2013-02-02 15:44:00,28.2,10.6,30.17,SSE,162,5.0,18.0,47,0.00,,---,0.00,VWS V14.01,2013-02-02 20:44:00,
2013-02-02 15:49:00,28.1,11.4,30.17,SE,129,3.0,18.0,49,0.00,,---,0.00,VWS V14.01,2013-02-02 20:49:00,
2013-02-02 15:54:00,28.0,10.9,30.17,WSW,244,9.0,18.0,48,0.00,,---,0.00,VWS V14.01,2013-02-02 20:54:00,
2013-02-02 15:59:00,28.0,11.3,30.17,SE,146,6.0,18.0,49,0.00,,---,0.00,VWS V14.01,2013-02-02 20:59:00,
2013-02-02 16:04:00,28.0,10.9,30.17,SSW,207,2.0,11.0,48,0.00,,---,0.00,VWS V14.01,2013-02-02 21:04:00,
2013-02-02 16:09:00,28.0,11.3,30.17,WSW,238,5.0,11.0,49,0.00,,---,0.00,VWS V14.01,2013-02-02 21:09:00,
2013-02-02 16:14:00,28.0,11.3,30.17,SSW,208,6.0,11.0,49,0.00,,---,0.00,VWS V14.01,2013-02-02 21:14:00,
2013-02-02 16:19:00,27.8,11.1,30.17,NE,39,5.0,14.0,49,0.00,,---,0.00,VWS V14.01,2013-02-02 21:19:00,
2013-02-02 16:24:00,27.7,11.0,30.16,SSW,208,9.0,14.0,49,0.00,,---,0.00,VWS V14.01,2013-02-02 21:24:00,
2013-02-02 16:29:00,27.6,11.4,30.16,SW,233,7.0,14.0,50,0.00,,---,0.00,VWS V14.01,2013-02-02 21:29:00,
2013-02-02 16:34:00,27.6,11.4,30.16,SW,224,4.0,10.0,50,0.00,,---,0.00,VWS V14.01,2013-02-02 21:34:00,
2013-02-02 16:39:00,27.5,11.8,30.16,ESE,105,6.0,11.0,51,0.00,,---,0.00,VWS V14.01,2013-02-02 21:39:00,
2013-02-02 16:44:00,27.6,12.3,30.16,SSW,212,4.0,11.0,52,0.00,,---,0.00,VWS V14.01,2013-02-02 21:44:00,
2013-02-02 16:49:00,27.6,12.7,30.15,SW,215,3.0,11.0,53,0.00,,---,0.00,VWS V14.01,2013-02-02 21:49:00,
2013-02-02 16:54:00,27.7,13.2,30.15,SSW,197,2.0,11.0,54,0.00,,---,0.00,VWS V14.01,2013-02-02 21:54:00,
2013-02-02 16:59:00,27.7,13.6,30.15,WNW,296,5.0,11.0,55,0.00,,---,0.00,VWS V14.01,2013-02-02 21:59:00,
2013-02-02 17:04:00,27.8,14.2,30.14,South,178,7.0,11.0,56,0.00,,---,0.00,VWS V14.01,2013-02-02 22:04:00,
2013-02-02 17:09:00,27.9,15.4,30.14,SW,224,7.0,13.0,59,0.00,,---,0.00,VWS V14.01,2013-02-02 22:09:00,
2013-02-02 17:14:00,27.9,15.1,30.14,NE,46,5.0,13.0,58,0.00,,---,0.00,VWS V14.01,2013-02-02 22:14:00,
2013-02-02 17:19:00,28.0,15.5,30.13,ESE,108,11.0,13.0,59,0.00,,---,0.00,VWS V14.01,2013-02-02 22:19:00,
2013-02-02 17:24:00,28.0,15.1,30.13,WNW,293,2.0,13.0,58,0.00,,---,0.00,VWS V14.01,2013-02-02 22:24:00,
2013-02-02 17:29:00,28.2,15.7,30.13,SSE,150,6.0,14.0,59,0.00,,---,0.00,VWS V14.01,2013-02-02 22:29:00,
2013-02-02 17:34:00,28.3,15.4,30.13,North,2,2.0,14.0,58,0.00,,---,0.00,VWS V14.01,2013-02-02 22:34:00,
2013-02-02 17:39:00,28.5,16.4,30.13,ENE,74,9.0,14.0,60,0.00,,---,0.00,VWS V14.01,2013-02-02 22:39:00,
2013-02-02 17:44:00,28.7,16.6,30.13,WNW,302,5.0,14.0,60,0.00,,---,0.00,VWS V14.01,2013-02-02 22:44:00,
2013-02-02 17:49:00,28.8,17.1,30.12,SSW,213,6.0,14.0,61,0.00,,---,0.00,VWS V14.01,2013-02-02 22:49:00,
2013-02-02 17:54:00,28.9,16.8,30.12,SW,217,11.0,17.0,60,0.00,,---,0.00,VWS V14.01,2013-02-02 22:54:00,
2013-02-02 17:59:00,29.0,16.9,30.12,SSE,166,11.0,17.0,60,0.00,,---,0.00,VWS V14.01,2013-02-02 22:59:00,
2013-02-02 18:04:00,29.0,16.9,30.12,NW,312,6.0,15.0,60,0.00,,---,0.00,VWS V14.01,2013-02-02 23:04:00,
2013-02-02 18:09:00,29.1,16.6,30.12,South,181,12.0,16.0,59,0.00,,---,0.00,VWS V14.01,2013-02-02 23:09:00,
2013-02-02 18:14:00,29.3,17.5,30.12,South,180,6.0,16.0,61,0.00,,---,0.00,VWS V14.01,2013-02-02 23:14:00,
2013-02-02 18:19:00,29.4,18.0,30.12,SE,140,9.0,17.0,62,0.00,,---,0.00,VWS V14.01,2013-02-02 23:19:00,
2013-02-02 18:24:00,29.5,17.3,30.12,SSW,204,10.0,17.0,60,0.00,,---,0.00,VWS V14.01,2013-02-02 23:24:00,
2013-02-02 18:29:00,29.6,17.8,30.12,NW,307,3.0,17.0,61,0.00,,---,0.00,VWS V14.01,2013-02-02 23:29:00,
2013-02-02 18:34:00,29.7,17.5,30.12,ESE,103,6.0,16.0,60,0.00,,---,0.00,VWS V14.01,2013-02-02 23:34:00,
2013-02-02 18:39:00,30.0,18.2,30.11,SE,127,5.0,16.0,61,0.00,,---,0.00,VWS V14.01,2013-02-02 23:39:00,
2013-02-02 18:44:00,30.2,17.6,30.11,South,179,6.0,18.0,59,0.00,,---,0.00,VWS V14.01,2013-02-02 23:44:00,
2013-02-02 18:49:00,30.2,17.2,30.11,NE,50,10.0,19.0,58,0.00,,---,0.00,VWS V14.01,2013-02-02 23:49:00,
2013-02-02 18:54:00,30.3,18.1,30.11,West,281,6.0,19.0,60,0.00,,---,0.00,VWS V14.01,2013-02-02 23:54:00,
2013-02-02 18:59:00,30.5,19.4,30.11,North,6,6.0,19.0,63,0.00,,---,0.00,VWS V14.01,2013-02-02 23:59:00,
2013-02-02 19:04:00,30.7,19.2,30.11,East,95,9.0,17.0,62,0.00,,---,0.00,VWS V14.01,2013-02-03 00:04:00,
2013-02-02 19:09:00,30.8,18.6,30.11,South,178,7.0,17.0,60,0.00,,---,0.00,VWS V14.01,2013-02-03 00:09:00,
2013-02-02 19:14:00,30.8,18.6,30.11,SW,218,5.0,18.0,60,0.00,,---,0.00,VWS V14.01,2013-02-03 00:14:00,
2013-02-02 19:19:00,30.6,17.6,30.11,NE,37,6.0,18.0,58,0.00,,---,0.00,VWS V14.01,2013-02-03 00:19:00,
2013-02-02 19:24:00,30.4,18.2,30.10,ENE,62,8.0,18.0,60,0.00,,---,0.00,VWS V14.01,2013-02-03 00:24:00,
2013-02-02 19:29:00,30.4,18.2,30.10,NE,40,7.0,18.0,60,0.00,,---,0.00,VWS V14.01,2013-02-03 00:29:00,
2013-02-02 19:34:00,30.3,18.5,30.10,SW,222,13.0,21.0,61,0.00,,---,0.00,VWS V14.01,2013-02-03 00:34:00,
2013-02-02 19:39:00,30.1,20.1,30.10,SSW,207,5.0,21.0,66,0.00,,---,0.00,VWS V14.01,2013-02-03 00:39:00,
2013-02-02 19:44:00,30.1,20.1,30.09,NE,51,4.0,21.0,66,0.00,,---,0.00,VWS V14.01,2013-02-03 00:44:00,
2013-02-02 19:49:00,30.2,20.2,30.09,South,181,12.0,21.0,66,0.00,,---,0.00,VWS V14.01,2013-02-03 00:49:00,
2013-02-02 19:54:00,30.2,20.2,30.09,South,181,5.0,21.0,66,0.00,,---,0.00,VWS V14.01,2013-02-03 00:54:00,
2013-02-02 19:59:00,29.9,19.6,30.09,WNW,301,7.0,21.0,65,0.00,,---,0.00,VWS V14.01,2013-02-03 00:59:00,
2013-02-02 20:04:00,29.6,21.7,30.09,SSW,201,5.0,14.0,72,0.00,,---,0.00,VWS V14.01,2013-02-03 01:04:00,
2013-02-02 20:09:00,29.3,22.4,30.09,South,186,6.0,14.0,75,0.00,,---,0.00,VWS V14.01,2013-02-03 01:09:00,
2013-02-02 20:14:00,29.0,22.4,30.09,East,87,9.0,14.0,76,0.00,,---,0.00,VWS V14.01,2013-02-03 01:14:00,
2013-02-02 20:19:00,28.8,22.2,30.09,SW,215,7.0,14.0,76,0.00,,---,0.00,VWS V14.01,2013-02-03 01:19:00,
2013-02-02 20:24:00,28.7,22.4,30.09,SW,223,16.0,17.0,77,0.00,,---,0.00,VWS V14.01,2013-02-03 01:24:00,
2013-02-02 20:29:00,28.5,22.2,30.09,South,174,5.0,17.0,77,0.00,,---,0.00,VWS V14.01,2013-02-03 01:29:00,
2013-02-02 20:34:00,28.2,22.8,30.09,South,176,5.0,14.0,80,0.00,,---,0.00,VWS V14.01,2013-02-03 01:34:00,
2013-02-02 20:39:00,27.9,22.5,30.10,WSW,243,13.0,16.0,80,0.00,,---,0.00,VWS V14.01,2013-02-03 01:39:00,
2013-02-02 20:44:00,27.7,22.4,30.10,SW,235,11.0,17.0,80,0.00,,---,0.00,VWS V14.01,2013-02-03 01:44:00,
2013-02-02 20:49:00,27.7,22.0,30.10,SW,231,16.0,18.0,79,0.00,,---,0.00,VWS V14.01,2013-02-03 01:49:00,
2013-02-02 20:54:00,27.4,21.8,30.10,SW,231,11.0,21.0,79,0.00,,---,0.00,VWS V14.01,2013-02-03 01:54:00,
2013-02-02 20:59:00,27.1,22.6,30.10,WSW,253,9.0,22.0,83,0.00,,---,0.00,VWS V14.01,2013-02-03 01:59:00,
2013-02-02 21:04:00,26.7,22.8,30.10,SSW,212,15.0,20.0,85,0.00,,---,0.00,VWS V14.01,2013-02-03 02:04:00,
2013-02-02 21:09:00,26.3,23.0,30.10,SW,231,16.0,22.0,87,0.00,,---,0.00,VWS V14.01,2013-02-03 02:09:00,
2013-02-02 21:14:00,26.3,23.2,30.11,SSE,160,7.0,22.0,88,0.00,,---,0.00,VWS V14.01,2013-02-03 02:14:00,
2013-02-02 21:19:00,26.2,23.7,30.11,SSW,207,7.0,22.0,90,0.00,,---,0.00,VWS V14.01,2013-02-03 02:19:00,
2013-02-02 21:24:00,26.2,23.7,30.11,SW,214,10.0,22.0,90,0.00,,---,0.00,VWS V14.01,2013-02-03 02:24:00,
2013-02-02 21:29:00,26.2,23.9,30.10,SW,229,10.0,22.0,91,0.00,,---,0.00,VWS V14.01,2013-02-03 02:29:00,
2013-02-02 21:34:00,26.3,24.0,30.11,WSW,247,15.0,15.0,91,0.00,,---,0.00,VWS V14.01,2013-02-03 02:34:00,
2013-02-02 21:39:00,26.3,24.3,30.10,SW,235,8.0,15.0,92,0.00,,---,0.00,VWS V14.01,2013-02-03 02:39:00,
2013-02-02 21:44:00,26.3,24.6,30.10,West,264,6.0,15.0,93,0.00,,---,0.00,VWS V14.01,2013-02-03 02:44:00,
2013-02-02 21:49:00,26.4,24.6,30.10,SW,220,6.0,15.0,93,0.00,,---,0.00,VWS V14.01,2013-02-03 02:49:00,
2013-02-02 21:54:00,26.4,24.6,30.10,SW,224,4.0,15.0,93,0.00,,---,0.00,VWS V14.01,2013-02-03 02:54:00,
2013-02-02 21:59:00,26.4,24.6,30.10,SW,222,8.0,15.0,93,0.00,,---,0.00,VWS V14.01,2013-02-03 02:59:00,
2013-02-02 22:04:00,26.5,24.8,30.10,South,179,7.0,10.0,93,0.00,,---,0.00,VWS V14.01,2013-02-03 03:04:00,
2013-02-02 22:09:00,26.6,25.1,30.09,SW,214,5.0,11.0,94,0.00,,---,0.00,VWS V14.01,2013-02-03 03:09:00,
2013-02-02 22:14:00,26.6,25.1,30.09,SSW,203,9.0,12.0,94,0.00,,---,0.00,VWS V14.01,2013-02-03 03:14:00,
2013-02-02 22:19:00,26.7,25.2,30.09,SSW,212,6.0,14.0,94,0.00,,---,0.00,VWS V14.01,2013-02-03 03:19:00,
2013-02-02 22:24:00,26.8,25.3,30.08,SW,222,5.0,14.0,94,0.00,,---,0.00,VWS V14.01,2013-02-03 03:24:00,
2013-02-02 22:29:00,26.9,25.4,30.08,SW,222,7.0,14.0,94,0.00,,---,0.00,VWS V14.01,2013-02-03 03:29:00,
2013-02-02 22:34:00,27.0,25.5,30.08,SW,225,4.0,9.0,94,0.00,,---,0.00,VWS V14.01,2013-02-03 03:34:00,
2013-02-02 22:39:00,27.1,25.6,30.08,WSW,247,4.0,9.0,94,0.00,,---,0.00,VWS V14.01,2013-02-03 03:39:00,
2013-02-02 22:44:00,27.2,25.7,30.07,SSE,167,1.0,9.0,94,0.00,,---,0.00,VWS V14.01,2013-02-03 03:44:00,
2013-02-02 22:49:00,27.3,25.8,30.07,South,188,2.0,9.0,94,0.00,,---,0.00,VWS V14.01,2013-02-03 03:49:00,
2013-02-02 22:54:00,27.4,25.9,30.07,SSW,209,3.0,9.0,94,0.00,,---,0.00,VWS V14.01,2013-02-03 03:54:00,
2013-02-02 22:59:00,27.5,26.0,30.07,West,259,5.0,9.0,94,0.00,,---,0.00,VWS V14.01,2013-02-03 03:59:00,
2013-02-02 23:04:00,27.7,26.2,30.07,SSE,167,3.0,9.0,94,0.00,,---,0.00,VWS V14.01,2013-02-03 04:04:00,
2013-02-02 23:09:00,27.8,26.3,30.06,SSW,200,5.0,9.0,94,0.00,,---,0.00,VWS V14.01,2013-02-03 04:09:00,
2013-02-02 23:14:00,27.8,26.0,30.06,East,82,6.0,9.0,93,0.00,,---,0.00,VWS V14.01,2013-02-03 04:14:00,
2013-02-02 23:19:00,27.8,26.0,30.06,East,91,2.0,11.0,93,0.00,,---,0.00,VWS V14.01,2013-02-03 04:19:00,
2013-02-02 23:24:00,27.8,25.8,30.06,SW,221,3.0,12.0,92,0.00,,---,0.00,VWS V14.01,2013-02-03 04:24:00,
2013-02-02 23:29:00,27.8,25.8,30.05,SSE,168,6.0,12.0,92,0.00,,---,0.00,VWS V14.01,2013-02-03 04:29:00,
2013-02-02 23:34:00,27.8,25.8,30.05,SSW,207,1.0,9.0,92,0.00,,---,0.00,VWS V14.01,2013-02-03 04:34:00,
2013-02-02 23:40:00,27.8,25.8,30.05,SW,226,6.0,9.0,92,0.00,,---,0.00,VWS V14.01,2013-02-03 04:40:00,
2013-02-02 23:45:00,27.8,25.8,30.05,South,175,2.0,9.0,92,0.00,,---,0.00,VWS V14.01,2013-02-03 04:45:00,
2013-02-02 23:50:00,27.8,25.8,30.05,SW,230,6.0,9.0,92,0.00,,---,0.00,VWS V14.01,2013-02-03 04:50:00,
2013-02-02 23:55:00,27.9,25.9,30.05,SSW,198,7.0,9.0,92,0.00,,---,0.00,VWS V14.01,2013-02-03 04:55:00,